sensor_id;sensor_type;location;lat;lon;timestamp;temperature;humidity
75380;HTU21D;65641;44.714;37.756;2023-04-03T00:00:00;13.90;72.03
75380;HTU21D;65641;44.714;37.756;2023-04-03T00:01:07;13.90;72.02
75380;HTU21D;65641;44.714;37.756;2023-04-03T00:02:10;13.90;72.02
75380;HTU21D;65641;44.714;37.756;2023-04-03T00:03:14;13.89;72.02
75380;HTU21D;65641;44.714;37.756;2023-04-03T00:04:17;13.90;72.03
75380;HTU21D;65641;44.714;37.756;2023-04-03T00:05:20;13.90;72.05
75380;HTU21D;65641;44.714;37.756;2023-04-03T00:06:24;13.90;72.05
75380;HTU21D;65641;44.714;37.756;2023-04-03T00:07:27;13.89;72.07
75380;HTU21D;65641;44.714;37.756;2023-04-03T00:08:30;13.90;72.06
75380;HTU21D;65641;44.714;37.756;2023-04-03T00:09:35;13.90;72.06
75380;HTU21D;65641;44.714;37.756;2023-04-03T00:10:38;13.89;72.07
75380;HTU21D;65641;44.714;37.756;2023-04-03T00:11:41;13.89;72.07
75380;HTU21D;65641;44.714;37.756;2023-04-03T00:12:44;13.89;72.07
75380;HTU21D;65641;44.714;37.756;2023-04-03T00:13:47;13.89;72.09
75380;HTU21D;65641;44.714;37.756;2023-04-03T00:14:50;13.89;72.07
75380;HTU21D;65641;44.714;37.756;2023-04-03T00:15:53;13.90;72.06
75380;HTU21D;65641;44.714;37.756;2023-04-03T00:16:56;13.89;72.06
75380;HTU21D;65641;44.714;37.756;2023-04-03T00:18:00;13.90;72.06
75380;HTU21D;65641;44.714;37.756;2023-04-03T00:19:04;13.89;72.05
75380;HTU21D;65641;44.714;37.756;2023-04-03T00:20:08;13.89;72.04
75380;HTU21D;65641;44.714;37.756;2023-04-03T00:21:13;13.89;72.06
75380;HTU21D;65641;44.714;37.756;2023-04-03T00:22:16;13.89;72.05
75380;HTU21D;65641;44.714;37.756;2023-04-03T00:23:19;13.89;72.06
75380;HTU21D;65641;44.714;37.756;2023-04-03T00:24:23;13.88;72.06
75380;HTU21D;65641;44.714;37.756;2023-04-03T00:25:27;13.89;72.07
75380;HTU21D;65641;44.714;37.756;2023-04-03T00:26:30;13.88;72.03
75380;HTU21D;65641;44.714;37.756;2023-04-03T00:27:36;13.88;72.05
75380;HTU21D;65641;44.714;37.756;2023-04-03T00:28:39;13.89;72.06
75380;HTU21D;65641;44.714;37.756;2023-04-03T00:29:42;13.88;72.06
75380;HTU21D;65641;44.714;37.756;2023-04-03T00:30:45;13.89;72.06
75380;HTU21D;65641;44.714;37.756;2023-04-03T00:31:49;13.89;72.06
75380;HTU21D;65641;44.714;37.756;2023-04-03T00:32:52;13.88;72.07
75380;HTU21D;65641;44.714;37.756;2023-04-03T00:33:55;13.89;72.06
75380;HTU21D;65641;44.714;37.756;2023-04-03T00:34:58;13.88;72.06
75380;HTU21D;65641;44.714;37.756;2023-04-03T00:36:09;13.86;72.07
75380;HTU21D;65641;44.714;37.756;2023-04-03T00:37:13;13.86;72.07
75380;HTU21D;65641;44.714;37.756;2023-04-03T00:38:17;13.86;72.08
75380;HTU21D;65641;44.714;37.756;2023-04-03T00:39:20;13.86;72.09
75380;HTU21D;65641;44.714;37.756;2023-04-03T00:40:26;13.86;72.11
75380;HTU21D;65641;44.714;37.756;2023-04-03T00:41:29;13.88;72.11
75380;HTU21D;65641;44.714;37.756;2023-04-03T00:42:32;13.86;72.11
75380;HTU21D;65641;44.714;37.756;2023-04-03T00:43:36;13.86;72.13
75380;HTU21D;65641;44.714;37.756;2023-04-03T00:45:45;13.88;72.12
75380;HTU21D;65641;44.714;37.756;2023-04-03T00:46:48;13.88;72.15
75380;HTU21D;65641;44.714;37.756;2023-04-03T00:47:52;13.86;72.16
75380;HTU21D;65641;44.714;37.756;2023-04-03T00:48:55;13.85;72.17
75380;HTU21D;65641;44.714;37.756;2023-04-03T00:49:58;13.86;72.16
75380;HTU21D;65641;44.714;37.756;2023-04-03T00:51:04;13.88;72.17
75380;HTU21D;65641;44.714;37.756;2023-04-03T00:52:13;13.88;72.16
75380;HTU21D;65641;44.714;37.756;2023-04-03T00:53:20;13.86;72.16
75380;HTU21D;65641;44.714;37.756;2023-04-03T00:54:25;13.88;72.16
75380;HTU21D;65641;44.714;37.756;2023-04-03T00:55:29;13.88;72.16
75380;HTU21D;65641;44.714;37.756;2023-04-03T00:56:32;13.88;72.18
75380;HTU21D;65641;44.714;37.756;2023-04-03T00:57:36;13.86;72.19
75380;HTU21D;65641;44.714;37.756;2023-04-03T00:58:44;13.86;72.19
75380;HTU21D;65641;44.714;37.756;2023-04-03T00:59:53;13.88;72.17
75380;HTU21D;65641;44.714;37.756;2023-04-03T01:00:58;13.86;72.16
75380;HTU21D;65641;44.714;37.756;2023-04-03T01:02:02;13.88;72.17
75380;HTU21D;65641;44.714;37.756;2023-04-03T01:03:07;13.88;72.19
75380;HTU21D;65641;44.714;37.756;2023-04-03T01:04:30;13.86;72.19
75380;HTU21D;65641;44.714;37.756;2023-04-03T01:05:35;13.86;72.19
75380;HTU21D;65641;44.714;37.756;2023-04-03T01:06:38;13.86;72.21
75380;HTU21D;65641;44.714;37.756;2023-04-03T01:07:43;13.86;72.19
75380;HTU21D;65641;44.714;37.756;2023-04-03T01:08:48;13.86;72.20
75380;HTU21D;65641;44.714;37.756;2023-04-03T01:09:56;13.88;72.19
75380;HTU21D;65641;44.714;37.756;2023-04-03T01:11:00;13.85;72.20
75380;HTU21D;65641;44.714;37.756;2023-04-03T01:12:33;13.85;72.19
75380;HTU21D;65641;44.714;37.756;2023-04-03T01:13:37;13.85;72.21
75380;HTU21D;65641;44.714;37.756;2023-04-03T01:14:42;13.85;72.21
75380;HTU21D;65641;44.714;37.756;2023-04-03T01:15:46;13.85;72.23
75380;HTU21D;65641;44.714;37.756;2023-04-03T01:16:53;13.88;72.22
75380;HTU21D;65641;44.714;37.756;2023-04-03T01:17:58;13.85;72.24
75380;HTU21D;65641;44.714;37.756;2023-04-03T01:19:03;13.86;72.23
75380;HTU21D;65641;44.714;37.756;2023-04-03T01:22:01;13.85;72.24
75380;HTU21D;65641;44.714;37.756;2023-04-03T01:25:44;13.88;72.24
75380;HTU21D;65641;44.714;37.756;2023-04-03T01:26:48;13.85;72.22
75380;HTU21D;65641;44.714;37.756;2023-04-03T01:27:51;13.88;72.24
75380;HTU21D;65641;44.714;37.756;2023-04-03T01:28:54;13.86;72.26
75380;HTU21D;65641;44.714;37.756;2023-04-03T01:29:58;13.86;72.27
75380;HTU21D;65641;44.714;37.756;2023-04-03T01:31:21;13.86;72.27
75380;HTU21D;65641;44.714;37.756;2023-04-03T01:32:25;13.88;72.28
75380;HTU21D;65641;44.714;37.756;2023-04-03T01:33:29;13.86;72.26
75380;HTU21D;65641;44.714;37.756;2023-04-03T01:34:32;13.88;72.27
75380;HTU21D;65641;44.714;37.756;2023-04-03T01:35:37;13.89;72.26
75380;HTU21D;65641;44.714;37.756;2023-04-03T01:36:40;13.88;72.26
75380;HTU21D;65641;44.714;37.756;2023-04-03T01:37:43;13.86;72.26
75380;HTU21D;65641;44.714;37.756;2023-04-03T01:38:47;13.89;72.26
75380;HTU21D;65641;44.714;37.756;2023-04-03T01:39:50;13.88;72.25
75380;HTU21D;65641;44.714;37.756;2023-04-03T01:40:53;13.88;72.26
75380;HTU21D;65641;44.714;37.756;2023-04-03T01:41:56;13.89;72.25
75380;HTU21D;65641;44.714;37.756;2023-04-03T01:43:08;13.89;72.25
75380;HTU21D;65641;44.714;37.756;2023-04-03T01:44:12;13.88;72.28
75380;HTU21D;65641;44.714;37.756;2023-04-03T01:45:15;13.88;72.29
75380;HTU21D;65641;44.714;37.756;2023-04-03T01:46:19;13.89;72.29
75380;HTU21D;65641;44.714;37.756;2023-04-03T01:47:23;13.88;72.28
75380;HTU21D;65641;44.714;37.756;2023-04-03T01:48:26;13.89;72.29
75380;HTU21D;65641;44.714;37.756;2023-04-03T01:49:29;13.89;72.29
75380;HTU21D;65641;44.714;37.756;2023-04-03T01:50:33;13.88;72.27
75380;HTU21D;65641;44.714;37.756;2023-04-03T01:51:36;13.89;72.27
75380;HTU21D;65641;44.714;37.756;2023-04-03T01:52:39;13.89;72.27
75380;HTU21D;65641;44.714;37.756;2023-04-03T01:53:42;13.89;72.25
75380;HTU21D;65641;44.714;37.756;2023-04-03T01:54:45;13.89;72.26
75380;HTU21D;65641;44.714;37.756;2023-04-03T01:55:48;13.89;72.27
75380;HTU21D;65641;44.714;37.756;2023-04-03T01:56:51;13.89;72.25
75380;HTU21D;65641;44.714;37.756;2023-04-03T01:57:55;13.89;72.25
75380;HTU21D;65641;44.714;37.756;2023-04-03T01:58:58;13.86;72.27
75380;HTU21D;65641;44.714;37.756;2023-04-03T02:00:01;13.89;72.29
75380;HTU21D;65641;44.714;37.756;2023-04-03T02:01:14;13.85;72.29
75380;HTU21D;65641;44.714;37.756;2023-04-03T02:02:17;13.89;72.31
75380;HTU21D;65641;44.714;37.756;2023-04-03T02:03:22;13.88;72.30
75380;HTU21D;65641;44.714;37.756;2023-04-03T02:04:25;13.86;72.30
75380;HTU21D;65641;44.714;37.756;2023-04-03T02:05:28;13.89;72.31
75380;HTU21D;65641;44.714;37.756;2023-04-03T02:06:31;13.88;72.32
75380;HTU21D;65641;44.714;37.756;2023-04-03T02:07:34;13.88;72.33
75380;HTU21D;65641;44.714;37.756;2023-04-03T02:08:37;13.86;72.34
75380;HTU21D;65641;44.714;37.756;2023-04-03T02:09:40;13.86;72.33
75380;HTU21D;65641;44.714;37.756;2023-04-03T02:10:46;13.88;72.33
75380;HTU21D;65641;44.714;37.756;2023-04-03T02:11:49;13.88;72.34
75380;HTU21D;65641;44.714;37.756;2023-04-03T02:12:52;13.88;72.34
75380;HTU21D;65641;44.714;37.756;2023-04-03T02:13:55;13.88;72.35
75380;HTU21D;65641;44.714;37.756;2023-04-03T02:14:59;13.86;72.35
75380;HTU21D;65641;44.714;37.756;2023-04-03T02:16:09;13.86;72.35
75380;HTU21D;65641;44.714;37.756;2023-04-03T02:17:12;13.85;72.35
75380;HTU21D;65641;44.714;37.756;2023-04-03T02:18:15;13.88;72.34
75380;HTU21D;65641;44.714;37.756;2023-04-03T02:19:18;13.84;72.34
75380;HTU21D;65641;44.714;37.756;2023-04-03T02:20:21;13.86;72.35
75380;HTU21D;65641;44.714;37.756;2023-04-03T02:21:24;13.88;72.35
75380;HTU21D;65641;44.714;37.756;2023-04-03T02:22:28;13.85;72.38
75380;HTU21D;65641;44.714;37.756;2023-04-03T02:23:34;13.85;72.36
75380;HTU21D;65641;44.714;37.756;2023-04-03T02:24:39;13.85;72.36
75380;HTU21D;65641;44.714;37.756;2023-04-03T02:25:42;13.85;72.37
75380;HTU21D;65641;44.714;37.756;2023-04-03T02:26:45;13.86;72.38
75380;HTU21D;65641;44.714;37.756;2023-04-03T02:27:51;13.86;72.38
75380;HTU21D;65641;44.714;37.756;2023-04-03T02:28:54;13.85;72.38
75380;HTU21D;65641;44.714;37.756;2023-04-03T02:29:57;13.85;72.38
75380;HTU21D;65641;44.714;37.756;2023-04-03T02:31:00;13.84;72.38
75380;HTU21D;65641;44.714;37.756;2023-04-03T02:32:05;13.85;72.40
75380;HTU21D;65641;44.714;37.756;2023-04-03T02:33:08;13.84;72.39
75380;HTU21D;65641;44.714;37.756;2023-04-03T02:34:12;13.85;72.39
75380;HTU21D;65641;44.714;37.756;2023-04-03T02:35:15;13.85;72.40
75380;HTU21D;65641;44.714;37.756;2023-04-03T02:36:18;13.85;72.41
75380;HTU21D;65641;44.714;37.756;2023-04-03T02:37:27;13.84;72.42
75380;HTU21D;65641;44.714;37.756;2023-04-03T02:38:30;13.85;72.42
75380;HTU21D;65641;44.714;37.756;2023-04-03T02:39:33;13.85;72.43
75380;HTU21D;65641;44.714;37.756;2023-04-03T02:40:37;13.84;72.44
75380;HTU21D;65641;44.714;37.756;2023-04-03T02:41:40;13.84;72.45
75380;HTU21D;65641;44.714;37.756;2023-04-03T02:42:48;13.84;72.45
75380;HTU21D;65641;44.714;37.756;2023-04-03T02:43:53;13.83;72.47
75380;HTU21D;65641;44.714;37.756;2023-04-03T02:44:55;13.84;72.48
75380;HTU21D;65641;44.714;37.756;2023-04-03T02:46:01;13.84;72.48
75380;HTU21D;65641;44.714;37.756;2023-04-03T02:47:04;13.83;72.49
75380;HTU21D;65641;44.714;37.756;2023-04-03T02:48:08;13.84;72.50
75380;HTU21D;65641;44.714;37.756;2023-04-03T02:49:11;13.83;72.49
75380;HTU21D;65641;44.714;37.756;2023-04-03T02:50:14;13.83;72.48
75380;HTU21D;65641;44.714;37.756;2023-04-03T02:51:17;13.83;72.50
75380;HTU21D;65641;44.714;37.756;2023-04-03T02:52:20;13.84;72.50
75380;HTU21D;65641;44.714;37.756;2023-04-03T02:53:24;13.83;72.51
75380;HTU21D;65641;44.714;37.756;2023-04-03T02:54:28;13.83;72.51
75380;HTU21D;65641;44.714;37.756;2023-04-03T02:55:36;13.82;72.51
75380;HTU21D;65641;44.714;37.756;2023-04-03T02:56:39;13.83;72.53
75380;HTU21D;65641;44.714;37.756;2023-04-03T02:57:42;13.83;72.53
75380;HTU21D;65641;44.714;37.756;2023-04-03T02:58:46;13.83;72.55
75380;HTU21D;65641;44.714;37.756;2023-04-03T02:59:50;13.83;72.54
75380;HTU21D;65641;44.714;37.756;2023-04-03T03:00:53;13.82;72.53
75380;HTU21D;65641;44.714;37.756;2023-04-03T03:01:57;13.82;72.54
75380;HTU21D;65641;44.714;37.756;2023-04-03T03:02:59;13.81;72.54
75380;HTU21D;65641;44.714;37.756;2023-04-03T03:04:03;13.81;72.54
75380;HTU21D;65641;44.714;37.756;2023-04-03T03:05:06;13.81;72.55
75380;HTU21D;65641;44.714;37.756;2023-04-03T03:06:13;13.81;72.58
75380;HTU21D;65641;44.714;37.756;2023-04-03T03:07:16;13.81;72.58
75380;HTU21D;65641;44.714;37.756;2023-04-03T03:08:19;13.81;72.58
75380;HTU21D;65641;44.714;37.756;2023-04-03T03:09:22;13.81;72.59
75380;HTU21D;65641;44.714;37.756;2023-04-03T03:10:25;13.81;72.60
75380;HTU21D;65641;44.714;37.756;2023-04-03T03:11:28;13.81;72.61
75380;HTU21D;65641;44.714;37.756;2023-04-03T03:12:31;13.80;72.61
75380;HTU21D;65641;44.714;37.756;2023-04-03T03:13:35;13.80;72.62
75380;HTU21D;65641;44.714;37.756;2023-04-03T03:14:38;13.79;72.64
75380;HTU21D;65641;44.714;37.756;2023-04-03T03:15:41;13.79;72.64
75380;HTU21D;65641;44.714;37.756;2023-04-03T03:16:44;13.79;72.63
75380;HTU21D;65641;44.714;37.756;2023-04-03T03:17:47;13.79;72.64
75380;HTU21D;65641;44.714;37.756;2023-04-03T03:18:50;13.79;72.64
75380;HTU21D;65641;44.714;37.756;2023-04-03T03:19:53;13.79;72.64
75380;HTU21D;65641;44.714;37.756;2023-04-03T03:20:58;13.79;72.66
75380;HTU21D;65641;44.714;37.756;2023-04-03T03:22:01;13.79;72.66
75380;HTU21D;65641;44.714;37.756;2023-04-03T03:23:04;13.79;72.68
75380;HTU21D;65641;44.714;37.756;2023-04-03T03:24:07;13.78;72.67
75380;HTU21D;65641;44.714;37.756;2023-04-03T03:25:10;13.77;72.69
75380;HTU21D;65641;44.714;37.756;2023-04-03T03:26:14;13.78;72.69
75380;HTU21D;65641;44.714;37.756;2023-04-03T03:27:17;13.78;72.72
75380;HTU21D;65641;44.714;37.756;2023-04-03T03:28:20;13.79;72.75
75380;HTU21D;65641;44.714;37.756;2023-04-03T03:29:24;13.78;72.78
75380;HTU21D;65641;44.714;37.756;2023-04-03T03:30:26;13.79;72.78
75380;HTU21D;65641;44.714;37.756;2023-04-03T03:31:29;13.78;72.81
75380;HTU21D;65641;44.714;37.756;2023-04-03T03:32:32;13.79;72.80
75380;HTU21D;65641;44.714;37.756;2023-04-03T03:33:36;13.78;72.77
75380;HTU21D;65641;44.714;37.756;2023-04-03T03:34:39;13.79;72.78
75380;HTU21D;65641;44.714;37.756;2023-04-03T03:35:43;13.78;72.78
75380;HTU21D;65641;44.714;37.756;2023-04-03T03:36:46;13.77;72.79
75380;HTU21D;65641;44.714;37.756;2023-04-03T03:37:49;13.79;72.78
75380;HTU21D;65641;44.714;37.756;2023-04-03T03:38:52;13.79;72.78
75380;HTU21D;65641;44.714;37.756;2023-04-03T03:39:55;13.79;72.80
75380;HTU21D;65641;44.714;37.756;2023-04-03T03:40:58;13.79;72.83
75380;HTU21D;65641;44.714;37.756;2023-04-03T03:42:02;13.79;72.84
75380;HTU21D;65641;44.714;37.756;2023-04-03T03:43:05;13.80;72.85
75380;HTU21D;65641;44.714;37.756;2023-04-03T03:44:08;13.79;72.83
75380;HTU21D;65641;44.714;37.756;2023-04-03T03:45:10;13.79;72.80
75380;HTU21D;65641;44.714;37.756;2023-04-03T03:46:13;13.80;72.81
75380;HTU21D;65641;44.714;37.756;2023-04-03T03:47:17;13.80;72.83
75380;HTU21D;65641;44.714;37.756;2023-04-03T03:48:20;13.81;72.81
75380;HTU21D;65641;44.714;37.756;2023-04-03T03:49:23;13.81;72.77
75380;HTU21D;65641;44.714;37.756;2023-04-03T03:50:26;13.81;72.74
75380;HTU21D;65641;44.714;37.756;2023-04-03T03:51:29;13.82;72.73
75380;HTU21D;65641;44.714;37.756;2023-04-03T03:52:32;13.83;72.74
75380;HTU21D;65641;44.714;37.756;2023-04-03T03:53:35;13.82;72.77
75380;HTU21D;65641;44.714;37.756;2023-04-03T03:54:49;13.84;72.78
75380;HTU21D;65641;44.714;37.756;2023-04-03T03:55:51;13.85;72.78
75380;HTU21D;65641;44.714;37.756;2023-04-03T03:56:57;13.84;72.83
75380;HTU21D;65641;44.714;37.756;2023-04-03T03:58:00;13.85;72.81
75380;HTU21D;65641;44.714;37.756;2023-04-03T03:59:05;13.88;72.75
75380;HTU21D;65641;44.714;37.756;2023-04-03T04:00:09;13.86;72.69
75380;HTU21D;65641;44.714;37.756;2023-04-03T04:01:25;13.89;72.64
75380;HTU21D;65641;44.714;37.756;2023-04-03T04:02:28;13.88;72.64
75380;HTU21D;65641;44.714;37.756;2023-04-03T04:03:32;13.88;72.64
75380;HTU21D;65641;44.714;37.756;2023-04-03T04:04:35;13.90;72.62
75380;HTU21D;65641;44.714;37.756;2023-04-03T04:05:39;13.90;72.61
75380;HTU21D;65641;44.714;37.756;2023-04-03T04:06:42;13.90;72.60
75380;HTU21D;65641;44.714;37.756;2023-04-03T04:07:45;13.91;72.58
75380;HTU21D;65641;44.714;37.756;2023-04-03T04:08:48;13.93;72.58
75380;HTU21D;65641;44.714;37.756;2023-04-03T04:09:51;13.93;72.57
75380;HTU21D;65641;44.714;37.756;2023-04-03T04:10:54;13.93;72.53
75380;HTU21D;65641;44.714;37.756;2023-04-03T04:11:57;13.93;72.50
75380;HTU21D;65641;44.714;37.756;2023-04-03T04:13:01;13.95;72.45
75380;HTU21D;65641;44.714;37.756;2023-04-03T04:14:04;13.95;72.41
75380;HTU21D;65641;44.714;37.756;2023-04-03T04:15:07;13.96;72.38
75380;HTU21D;65641;44.714;37.756;2023-04-03T04:16:10;13.96;72.34
75380;HTU21D;65641;44.714;37.756;2023-04-03T04:17:14;13.97;72.32
75380;HTU21D;65641;44.714;37.756;2023-04-03T04:18:17;13.97;72.31
75380;HTU21D;65641;44.714;37.756;2023-04-03T04:19:23;13.97;72.33
75380;HTU21D;65641;44.714;37.756;2023-04-03T04:20:26;13.97;72.32
75380;HTU21D;65641;44.714;37.756;2023-04-03T04:21:29;13.98;72.29
75380;HTU21D;65641;44.714;37.756;2023-04-03T04:22:32;13.98;72.29
75380;HTU21D;65641;44.714;37.756;2023-04-03T04:23:35;13.99;72.27
75380;HTU21D;65641;44.714;37.756;2023-04-03T04:24:38;13.99;72.29
75380;HTU21D;65641;44.714;37.756;2023-04-03T04:25:47;14.00;72.30
75380;HTU21D;65641;44.714;37.756;2023-04-03T04:26:50;13.99;72.30
75380;HTU21D;65641;44.714;37.756;2023-04-03T04:27:57;14.00;72.32
75380;HTU21D;65641;44.714;37.756;2023-04-03T04:29:00;14.00;72.32
75380;HTU21D;65641;44.714;37.756;2023-04-03T04:30:07;14.01;72.31
75380;HTU21D;65641;44.714;37.756;2023-04-03T04:31:11;14.03;72.29
75380;HTU21D;65641;44.714;37.756;2023-04-03T04:32:15;14.03;72.30
75380;HTU21D;65641;44.714;37.756;2023-04-03T04:33:18;14.03;72.30
75380;HTU21D;65641;44.714;37.756;2023-04-03T04:34:21;14.06;72.26
75380;HTU21D;65641;44.714;37.756;2023-04-03T04:35:24;14.06;72.25
75380;HTU21D;65641;44.714;37.756;2023-04-03T04:36:27;14.06;72.23
75380;HTU21D;65641;44.714;37.756;2023-04-03T04:37:31;14.06;72.21
75380;HTU21D;65641;44.714;37.756;2023-04-03T04:38:34;14.07;72.20
75380;HTU21D;65641;44.714;37.756;2023-04-03T04:39:37;14.08;72.19
75380;HTU21D;65641;44.714;37.756;2023-04-03T04:40:40;14.08;72.16
75380;HTU21D;65641;44.714;37.756;2023-04-03T04:41:44;14.08;72.17
75380;HTU21D;65641;44.714;37.756;2023-04-03T04:42:47;14.07;72.27
75380;HTU21D;65641;44.714;37.756;2023-04-03T04:43:51;14.10;72.35
75380;HTU21D;65641;44.714;37.756;2023-04-03T04:44:54;14.10;72.46
75380;HTU21D;65641;44.714;37.756;2023-04-03T04:46:09;14.13;72.54
75380;HTU21D;65641;44.714;37.756;2023-04-03T04:47:19;14.15;72.52
75380;HTU21D;65641;44.714;37.756;2023-04-03T04:48:22;14.18;72.47
75380;HTU21D;65641;44.714;37.756;2023-04-03T04:49:26;14.20;72.40
75380;HTU21D;65641;44.714;37.756;2023-04-03T04:50:29;14.22;72.32
75380;HTU21D;65641;44.714;37.756;2023-04-03T04:51:32;14.23;72.23
75380;HTU21D;65641;44.714;37.756;2023-04-03T04:52:51;14.25;72.15
75380;HTU21D;65641;44.714;37.756;2023-04-03T04:53:54;14.27;72.09
75380;HTU21D;65641;44.714;37.756;2023-04-03T04:54:58;14.29;72.02
75380;HTU21D;65641;44.714;37.756;2023-04-03T04:56:01;14.29;71.97
75380;HTU21D;65641;44.714;37.756;2023-04-03T04:57:05;14.33;71.93
75380;HTU21D;65641;44.714;37.756;2023-04-03T04:58:08;14.33;71.92
75380;HTU21D;65641;44.714;37.756;2023-04-03T04:59:12;14.36;71.87
75380;HTU21D;65641;44.714;37.756;2023-04-03T05:00:15;14.36;71.84
75380;HTU21D;65641;44.714;37.756;2023-04-03T05:01:18;14.38;71.80
75380;HTU21D;65641;44.714;37.756;2023-04-03T05:02:37;14.41;71.68
75380;HTU21D;65641;44.714;37.756;2023-04-03T05:03:40;14.40;71.61
75380;HTU21D;65641;44.714;37.756;2023-04-03T05:04:43;14.43;71.50
75380;HTU21D;65641;44.714;37.756;2023-04-03T05:05:53;14.44;71.42
75380;HTU21D;65641;44.714;37.756;2023-04-03T05:06:56;14.43;71.38
75380;HTU21D;65641;44.714;37.756;2023-04-03T05:08:03;14.45;71.31
75380;HTU21D;65641;44.714;37.756;2023-04-03T05:09:06;14.43;71.19
75380;HTU21D;65641;44.714;37.756;2023-04-03T05:10:09;14.44;71.10
75380;HTU21D;65641;44.714;37.756;2023-04-03T05:11:13;14.43;71.05
75380;HTU21D;65641;44.714;37.756;2023-04-03T05:12:16;14.43;71.02
75380;HTU21D;65641;44.714;37.756;2023-04-03T05:13:26;14.41;71.06
75380;HTU21D;65641;44.714;37.756;2023-04-03T05:14:30;14.40;71.12
75380;HTU21D;65641;44.714;37.756;2023-04-03T05:15:37;14.40;71.20
75380;HTU21D;65641;44.714;37.756;2023-04-03T05:16:41;14.40;71.26
75380;HTU21D;65641;44.714;37.756;2023-04-03T05:17:44;14.39;71.29
75380;HTU21D;65641;44.714;37.756;2023-04-03T05:18:48;14.39;71.32
75380;HTU21D;65641;44.714;37.756;2023-04-03T05:19:54;14.38;71.40
75380;HTU21D;65641;44.714;37.756;2023-04-03T05:20:58;14.38;71.45
75380;HTU21D;65641;44.714;37.756;2023-04-03T05:22:02;14.38;71.54
75380;HTU21D;65641;44.714;37.756;2023-04-03T05:23:05;14.39;71.64
75380;HTU21D;65641;44.714;37.756;2023-04-03T05:24:10;14.39;71.68
75380;HTU21D;65641;44.714;37.756;2023-04-03T05:25:15;14.41;71.71
75380;HTU21D;65641;44.714;37.756;2023-04-03T05:26:19;14.39;71.69
75380;HTU21D;65641;44.714;37.756;2023-04-03T05:27:24;14.41;71.67
75380;HTU21D;65641;44.714;37.756;2023-04-03T05:28:32;14.42;71.70
75380;HTU21D;65641;44.714;37.756;2023-04-03T05:29:35;14.43;71.67
75380;HTU21D;65641;44.714;37.756;2023-04-03T05:30:39;14.44;71.72
75380;HTU21D;65641;44.714;37.756;2023-04-03T05:31:43;14.47;71.77
75380;HTU21D;65641;44.714;37.756;2023-04-03T05:32:48;14.49;71.80
75380;HTU21D;65641;44.714;37.756;2023-04-03T05:33:54;14.50;71.87
75380;HTU21D;65641;44.714;37.756;2023-04-03T05:34:56;14.53;71.99
75380;HTU21D;65641;44.714;37.756;2023-04-03T05:36:05;14.56;72.08
75380;HTU21D;65641;44.714;37.756;2023-04-03T05:37:13;14.60;71.98
75380;HTU21D;65641;44.714;37.756;2023-04-03T05:38:17;14.63;71.93
75380;HTU21D;65641;44.714;37.756;2023-04-03T05:39:20;14.68;71.85
75380;HTU21D;65641;44.714;37.756;2023-04-03T05:40:25;14.72;71.77
75380;HTU21D;65641;44.714;37.756;2023-04-03T05:41:31;14.75;71.69
75380;HTU21D;65641;44.714;37.756;2023-04-03T05:42:33;14.79;71.41
75380;HTU21D;65641;44.714;37.756;2023-04-03T05:43:37;14.83;71.39
75380;HTU21D;65641;44.714;37.756;2023-04-03T05:44:43;14.87;71.26
75380;HTU21D;65641;44.714;37.756;2023-04-03T05:45:49;14.91;71.10
75380;HTU21D;65641;44.714;37.756;2023-04-03T05:46:52;14.95;70.98
75380;HTU21D;65641;44.714;37.756;2023-04-03T05:47:55;14.97;70.82
75380;HTU21D;65641;44.714;37.756;2023-04-03T05:48:58;15.00;70.69
75380;HTU21D;65641;44.714;37.756;2023-04-03T05:50:05;15.02;70.48
75380;HTU21D;65641;44.714;37.756;2023-04-03T05:51:24;15.06;70.48
75380;HTU21D;65641;44.714;37.756;2023-04-03T05:52:36;15.11;70.56
75380;HTU21D;65641;44.714;37.756;2023-04-03T05:53:39;15.15;70.54
75380;HTU21D;65641;44.714;37.756;2023-04-03T05:54:43;15.17;70.45
75380;HTU21D;65641;44.714;37.756;2023-04-03T05:55:52;15.24;70.35
75380;HTU21D;65641;44.714;37.756;2023-04-03T05:56:56;15.27;70.22
75380;HTU21D;65641;44.714;37.756;2023-04-03T05:58:00;15.31;70.02
75380;HTU21D;65641;44.714;37.756;2023-04-03T05:59:04;15.34;69.78
75380;HTU21D;65641;44.714;37.756;2023-04-03T06:00:08;15.38;69.73
75380;HTU21D;65641;44.714;37.756;2023-04-03T06:01:24;15.41;69.53
75380;HTU21D;65641;44.714;37.756;2023-04-03T06:02:27;15.42;69.37
75380;HTU21D;65641;44.714;37.756;2023-04-03T06:03:31;15.45;69.23
75380;HTU21D;65641;44.714;37.756;2023-04-03T06:04:34;15.48;69.11
75380;HTU21D;65641;44.714;37.756;2023-04-03T06:05:37;15.49;69.04
75380;HTU21D;65641;44.714;37.756;2023-04-03T06:06:55;15.52;68.97
75380;HTU21D;65641;44.714;37.756;2023-04-03T06:08:01;15.53;68.97
75380;HTU21D;65641;44.714;37.756;2023-04-03T06:09:05;15.54;69.00
75380;HTU21D;65641;44.714;37.756;2023-04-03T06:10:11;15.56;69.06
75380;HTU21D;65641;44.714;37.756;2023-04-03T06:11:14;15.60;69.22
75380;HTU21D;65641;44.714;37.756;2023-04-03T06:12:18;15.60;69.18
75380;HTU21D;65641;44.714;37.756;2023-04-03T06:13:21;15.63;69.00
75380;HTU21D;65641;44.714;37.756;2023-04-03T06:14:26;15.67;68.91
75380;HTU21D;65641;44.714;37.756;2023-04-03T06:15:29;15.69;68.80
75380;HTU21D;65641;44.714;37.756;2023-04-03T06:16:32;15.71;68.79
75380;HTU21D;65641;44.714;37.756;2023-04-03T06:17:37;15.73;68.80
75380;HTU21D;65641;44.714;37.756;2023-04-03T06:18:40;15.75;68.61
75380;HTU21D;65641;44.714;37.756;2023-04-03T06:19:44;15.76;68.44
75380;HTU21D;65641;44.714;37.756;2023-04-03T06:20:48;15.76;68.37
75380;HTU21D;65641;44.714;37.756;2023-04-03T06:21:51;15.80;68.33
75380;HTU21D;65641;44.714;37.756;2023-04-03T06:22:53;15.78;68.37
75380;HTU21D;65641;44.714;37.756;2023-04-03T06:23:56;15.80;68.41
75380;HTU21D;65641;44.714;37.756;2023-04-03T06:24:59;15.81;68.27
75380;HTU21D;65641;44.714;37.756;2023-04-03T06:26:03;15.80;68.26
75380;HTU21D;65641;44.714;37.756;2023-04-03T06:27:06;15.82;68.33
75380;HTU21D;65641;44.714;37.756;2023-04-03T06:28:09;15.83;68.42
75380;HTU21D;65641;44.714;37.756;2023-04-03T06:29:12;15.83;68.51
75380;HTU21D;65641;44.714;37.756;2023-04-03T06:30:15;15.85;68.58
75380;HTU21D;65641;44.714;37.756;2023-04-03T06:31:18;15.86;68.52
75380;HTU21D;65641;44.714;37.756;2023-04-03T06:32:21;15.87;68.44
75380;HTU21D;65641;44.714;37.756;2023-04-03T06:33:24;15.89;68.55
75380;HTU21D;65641;44.714;37.756;2023-04-03T06:34:27;15.90;68.52
75380;HTU21D;65641;44.714;37.756;2023-04-03T06:35:30;15.91;68.50
75380;HTU21D;65641;44.714;37.756;2023-04-03T06:36:33;15.95;68.41
75380;HTU21D;65641;44.714;37.756;2023-04-03T06:37:37;15.93;68.30
75380;HTU21D;65641;44.714;37.756;2023-04-03T06:38:39;15.96;68.26
75380;HTU21D;65641;44.714;37.756;2023-04-03T06:39:43;15.98;68.39